Time;durP1;ratioP1;P1;durP2;ratioP2;P2;SDS_P1;SDS_P2;PMS_P1;PMS_P2;Temp;Humidity;BMP_temperature;BMP_pressure;BME280_temperature;BME280_humidity;BME280_pressure;Samples;Min_cycle;Max_cycle;Signal;HPM_P1;HPM_P2
2021/11/24 00:00:26;;;;;;;29.25;13.88;;;;;;;10.90;52.52;102410.41;5064203;28;20491;-76
2021/11/24 00:02:53;;;;;;;32.58;14.45;;;;;;;10.89;52.31;102413.19;5071006;28;20087;-76
2021/11/24 00:05:20;;;;;;;32.50;13.85;;;;;;;10.88;52.34;102401.41;5073002;28;20044;-77
2021/11/24 00:07:47;;;;;;;32.15;15.05;;;;;;;10.88;52.34;102404.13;5072371;28;20092;-76
2021/11/24 00:10:16;;;;;;;28.92;13.27;;;;;;;10.88;52.25;102409.56;5055023;28;20080;-76
2021/11/24 00:12:43;;;;;;;27.73;12.68;;;;;;;10.87;52.62;102404.22;5078991;28;20075;-77
2021/11/24 00:15:11;;;;;;;28.50;12.60;;;;;;;10.87;52.39;102398.81;5066493;28;20388;-77
2021/11/24 00:17:38;;;;;;;28.40;11.75;;;;;;;10.85;52.23;102392.53;5055827;28;20045;-77
2021/11/24 00:20:06;;;;;;;25.88;12.25;;;;;;;10.86;52.28;102395.19;5069741;28;20083;-77
2021/11/24 00:22:33;;;;;;;26.95;12.02;;;;;;;10.85;52.35;102389.81;5070722;28;20483;-77
2021/11/24 00:25:00;;;;;;;28.65;12.23;;;;;;;10.84;52.70;102394.38;5073189;28;20052;-76
2021/11/24 00:27:36;;;;;;;24.63;11.27;;;;;;;10.87;52.93;102388.78;5051264;28;21111;-76
2021/11/24 00:30:04;;;;;;;24.90;10.85;;;;;;;10.84;52.23;102391.66;5061328;28;20826;-77
2021/11/24 00:32:31;;;;;;;24.52;11.18;;;;;;;10.85;52.49;102379.84;5043462;28;20107;-77
2021/11/24 00:34:57;;;;;;;28.15;11.93;;;;;;;10.85;52.54;102390.72;5052249;28;20700;-77
2021/11/24 00:37:24;;;;;;;25.73;11.18;;;;;;;10.87;52.35;102385.22;5049855;28;20568;-77
2021/11/24 00:39:51;;;;;;;25.85;12.13;;;;;;;10.89;52.78;102386.00;5054343;28;20049;-76
2021/11/24 00:42:17;;;;;;;23.85;10.50;;;;;;;10.90;52.66;102385.94;5070371;28;20056;-76
2021/11/24 00:44:44;;;;;;;26.13;10.75;;;;;;;10.90;52.57;102383.22;5060980;28;20071;-77
2021/11/24 00:47:11;;;;;;;25.10;11.35;;;;;;;10.91;52.44;102379.56;5059087;28;20044;-77
2021/11/24 00:49:39;;;;;;;24.20;11.82;;;;;;;10.93;52.53;102380.38;5072533;28;20102;-76
2021/11/24 00:52:09;;;;;;;25.55;11.82;;;;;;;10.95;52.71;102381.19;5069666;28;20052;-77
2021/11/24 00:54:37;;;;;;;28.00;12.85;;;;;;;10.93;52.70;102384.94;5063170;28;20100;-77
2021/11/24 00:57:05;;;;;;;24.70;11.18;;;;;;;10.94;52.12;102367.69;5050977;28;20064;-77
2021/11/24 00:59:32;;;;;;;20.35;10.43;;;;;;;10.95;52.67;102369.44;5058174;28;20504;-77
2021/11/24 01:01:59;;;;;;;25.20;10.85;;;;;;;10.94;52.48;102368.56;5040764;28;20118;-76
2021/11/24 01:04:25;;;;;;;25.45;12.02;;;;;;;10.94;52.21;102362.25;5052169;28;20057;-77
2021/11/24 01:06:52;;;;;;;25.73;12.13;;;;;;;10.96;52.49;102365.75;5062341;28;20075;-76
2021/11/24 01:09:19;;;;;;;25.85;12.38;;;;;;;10.97;52.50;102368.41;5071684;28;20048;-76
2021/11/24 01:11:46;;;;;;;23.48;10.85;;;;;;;10.97;52.25;102382.00;5070176;28;20164;-77
2021/11/24 01:14:12;;;;;;;26.20;11.73;;;;;;;10.98;52.40;102367.47;5071749;28;20411;-77
2021/11/24 01:16:39;;;;;;;25.85;11.55;;;;;;;10.99;52.41;102368.34;5066303;28;20053;-77
2021/11/24 01:19:06;;;;;;;24.27;11.98;;;;;;;10.99;52.65;102363.81;5070869;28;20053;-77
2021/11/24 01:21:32;;;;;;;22.92;11.10;;;;;;;11.00;52.27;102370.13;5060039;28;20049;-77
2021/11/24 01:23:59;;;;;;;28.88;12.52;;;;;;;10.99;52.51;102362.91;5065633;28;20423;-76
2021/11/24 01:26:26;;;;;;;28.02;11.57;;;;;;;10.99;52.24;102360.19;5052184;28;20076;-77
2021/11/24 01:28:52;;;;;;;24.27;11.38;;;;;;;10.99;52.61;102360.19;5078073;28;20499;-76
2021/11/24 01:31:19;;;;;;;22.17;11.35;;;;;;;10.98;52.64;102355.72;5052732;28;20119;-77
2021/11/24 01:33:46;;;;;;;22.90;10.75;;;;;;;10.98;52.54;102351.16;5049899;28;20080;-76
2021/11/24 01:36:13;;;;;;;24.90;11.90;;;;;;;10.99;52.45;102355.66;5051962;28;20041;-77
2021/11/24 01:38:40;;;;;;;23.73;10.43;;;;;;;10.99;52.71;102352.03;5050767;28;20088;-77
2021/11/24 01:41:06;;;;;;;21.33;10.55;;;;;;;11.00;52.23;102351.09;5051396;28;20131;-77
2021/11/24 01:43:33;;;;;;;24.05;11.20;;;;;;;11.00;52.33;102345.66;5053943;28;20091;-76
2021/11/24 01:45:59;;;;;;;26.70;11.38;;;;;;;11.02;52.15;102351.91;5071591;28;20072;-76
2021/11/24 01:48:27;;;;;;;21.35;10.95;;;;;;;11.02;52.32;102346.47;5069080;28;20522;-76
2021/11/24 01:50:54;;;;;;;26.90;12.43;;;;;;;11.03;52.56;102345.53;5070253;28;20049;-76
2021/11/24 01:53:21;;;;;;;24.08;12.07;;;;;;;11.02;52.44;102344.66;5060377;28;20049;-76
2021/11/24 01:55:48;;;;;;;23.83;10.50;;;;;;;11.03;52.54;102340.09;5051582;28;20453;-76
2021/11/24 01:58:15;;;;;;;22.02;10.88;;;;;;;11.03;52.57;102343.69;5073928;28;20071;-76
2021/11/24 02:00:42;;;;;;;22.80;11.20;;;;;;;11.03;52.51;102342.81;5078313;28;20057;-77
2021/11/24 02:03:09;;;;;;;20.50;11.43;;;;;;;11.02;52.56;102346.47;5027973;28;20496;-76
2021/11/24 02:05:35;;;;;;;20.70;11.25;;;;;;;11.01;52.57;102339.28;5051672;28;20491;-76
2021/11/24 02:08:02;;;;;;;27.73;11.93;;;;;;;11.01;52.42;102337.44;5050658;28;20069;-76
2021/11/24 02:10:29;;;;;;;24.15;11.43;;;;;;;11.00;52.51;102329.34;5050278;28;20053;-76
2021/11/24 02:12:55;;;;;;;21.98;11.43;;;;;;;10.99;52.50;102325.75;5032336;28;20412;-76
2021/11/24 02:15:22;;;;;;;24.73;11.55;;;;;;;10.99;52.66;102320.31;5054336;28;20084;-76
2021/11/24 02:17:49;;;;;;;26.17;11.70;;;;;;;11.00;52.63;102321.19;5068262;28;20059;-76
2021/11/24 02:20:18;;;;;;;23.35;11.20;;;;;;;10.99;52.67;102320.31;5071496;28;20088;-76
2021/11/24 02:22:44;;;;;;;21.10;11.18;;;;;;;10.97;52.45;102311.34;5073059;28;20088;-76
2021/11/24 02:25:11;;;;;;;23.73;10.85;;;;;;;10.96;52.80;102306.84;5073487;28;20057;-76
2021/11/24 02:27:38;;;;;;;20.48;10.57;;;;;;;10.96;52.49;102300.53;5052131;28;20072;-77
2021/11/24 02:30:06;;;;;;;19.83;9.77;;;;;;;10.97;52.36;102299.59;5077173;28;20087;-77
2021/11/24 02:32:32;;;;;;;20.75;11.10;;;;;;;10.96;52.94;102293.28;5053067;28;20053;-76
2021/11/24 02:34:59;;;;;;;19.00;10.40;;;;;;;10.96;52.63;102298.72;5057034;28;20068;-77
2021/11/24 02:37:25;;;;;;;20.65;10.88;;;;;;;10.96;52.43;102289.66;5070648;28;20166;-77
2021/11/24 02:39:52;;;;;;;21.33;10.50;;;;;;;10.97;52.58;102294.16;5074400;28;20048;-77
2021/11/24 02:42:19;;;;;;;17.83;9.82;;;;;;;10.96;52.57;102290.56;5071996;28;20072;-77
2021/11/24 02:44:46;;;;;;;17.90;9.98;;;;;;;10.96;52.48;102295.09;5074412;28;20056;-76
2021/11/24 02:47:19;;;;;;;17.00;9.18;;;;;;;10.99;52.54;102289.53;5073318;28;20044;-77
2021/11/24 02:49:48;;;;;;;20.42;10.15;;;;;;;10.97;52.71;102288.72;5074106;28;20087;-77
2021/11/24 02:52:16;;;;;;;17.92;9.13;;;;;;;10.98;52.66;102283.22;5072200;28;20056;-76
2021/11/24 02:54:51;;;;;;;18.58;9.77;;;;;;;11.02;52.64;102275.81;5058791;28;20052;-76
2021/11/24 02:57:18;;;;;;;20.63;10.70;;;;;;;11.01;52.44;102271.34;5070241;28;20545;-76
2021/11/24 02:59:45;;;;;;;24.70;11.13;;;;;;;11.00;52.39;102275.88;5064614;28;20114;-77
2021/11/24 03:02:12;;;;;;;21.48;10.95;;;;;;;11.02;52.53;102268.56;5069232;28;20048;-76
2021/11/24 03:04:40;;;;;;;18.90;9.93;;;;;;;11.03;52.49;102266.72;5053191;28;20075;-77
2021/11/24 03:07:07;;;;;;;19.35;9.75;;;;;;;11.00;52.38;102262.31;5062122;28;20076;-76
2021/11/24 03:09:34;;;;;;;19.20;9.80;;;;;;;11.00;52.42;102261.41;5070696;28;20081;-77
2021/11/24 03:12:00;;;;;;;19.20;10.68;;;;;;;11.00;52.40;102253.25;5068152;28;20210;-77
2021/11/24 03:14:27;;;;;;;22.25;11.38;;;;;;;11.00;52.63;102255.97;5064838;28;20048;-77
2021/11/24 03:16:55;;;;;;;25.30;11.93;;;;;;;10.97;52.57;102246.13;5072688;28;20048;-77
2021/11/24 03:19:22;;;;;;;20.02;10.10;;;;;;;10.97;52.85;102248.84;5060848;28;20457;-77
2021/11/24 03:21:49;;;;;;;23.23;10.88;;;;;;;10.95;53.03;102242.59;5057920;28;20086;-77
2021/11/24 03:24:16;;;;;;;20.13;10.05;;;;;;;10.96;52.85;102240.75;5057368;28;20067;-77
2021/11/24 03:26:42;;;;;;;20.38;10.40;;;;;;;10.96;52.62;102238.03;5070962;28;20070;-77
2021/11/24 03:29:09;;;;;;;17.20;9.85;;;;;;;10.96;52.77;102232.59;5088358;28;20386;-77
2021/11/24 03:31:36;;;;;;;22.10;10.05;;;;;;;10.97;52.86;102235.25;5059893;28;20135;-77
2021/11/24 03:34:03;;;;;;;20.20;9.32;;;;;;;10.98;52.74;102230.69;5061626;28;20088;-77
2021/11/24 03:36:29;;;;;;;18.23;8.88;;;;;;;10.99;52.92;102229.75;5059032;28;20461;-77
2021/11/24 03:38:56;;;;;;;18.55;9.80;;;;;;;10.99;52.63;102227.91;5055182;28;20118;-77
2021/11/24 03:41:22;;;;;;;21.05;11.45;;;;;;;11.00;52.81;102221.53;5059624;28;20084;-77
2021/11/24 03:43:49;;;;;;;20.67;11.30;;;;;;;11.01;52.55;102219.69;5064676;28;20095;-77
2021/11/24 03:46:16;;;;;;;20.02;9.73;;;;;;;11.01;52.57;102222.41;5073586;28;20048;-77
2021/11/24 03:48:43;;;;;;;22.20;10.80;;;;;;;11.01;52.75;102217.88;5072245;28;20057;-77
2021/11/24 03:51:10;;;;;;;18.77;9.15;;;;;;;11.03;52.26;102212.38;5060515;28;20053;-76
2021/11/24 03:53:40;;;;;;;21.15;9.48;;;;;;;11.02;52.45;102213.31;5054562;28;20432;-77
2021/11/24 03:56:09;;;;;;;16.08;9.05;;;;;;;11.03;52.51;102207.81;5041367;28;20064;-77
2021/11/24 03:58:36;;;;;;;22.55;10.50;;;;;;;11.02;52.70;102203.34;5073062;28;20476;-76
2021/11/24 04:01:04;;;;;;;20.90;11.43;;;;;;;11.03;52.66;102207.81;5054853;28;20567;-76
2021/11/24 04:03:31;;;;;;;22.77;10.95;;;;;;;11.03;52.86;102201.50;5060436;28;20044;-77
2021/11/24 04:05:58;;;;;;;20.45;10.75;;;;;;;11.01;52.66;102192.53;5060991;28;20094;-77
2021/11/24 04:08:25;;;;;;;17.80;9.50;;;;;;;11.01;52.59;102190.69;5068940;28;20102;-77
2021/11/24 04:10:51;;;;;;;19.48;10.18;;;;;;;11.00;52.65;102186.22;5072437;28;20092;-77
2021/11/24 04:13:18;;;;;;;19.98;10.68;;;;;;;10.99;52.65;102184.44;5068537;28;20061;-77
2021/11/24 04:15:46;;;;;;;18.92;9.77;;;;;;;11.00;52.78;102179.88;5067748;28;20200;-77
2021/11/24 04:18:13;;;;;;;14.95;8.50;;;;;;;10.99;52.71;102187.16;5071010;28;20492;-77
2021/11/24 04:20:39;;;;;;;21.35;10.73;;;;;;;10.99;52.55;102173.56;5063405;28;20131;-77
2021/11/24 04:23:06;;;;;;;23.13;10.93;;;;;;;10.99;52.75;102179.00;5050195;28;20084;-77
2021/11/24 04:25:32;;;;;;;18.73;9.68;;;;;;;11.00;52.90;102177.16;5064591;28;20114;-77
2021/11/24 04:27:59;;;;;;;18.85;9.35;;;;;;;10.99;52.71;102168.13;5073775;28;20481;-77
2021/11/24 04:30:26;;;;;;;23.55;10.65;;;;;;;10.99;52.71;102173.56;5056547;28;20088;-77
2021/11/24 04:32:52;;;;;;;23.17;10.60;;;;;;;10.98;52.76;102169.09;5063752;28;20135;-77
2021/11/24 04:35:19;;;;;;;20.17;9.50;;;;;;;10.99;52.65;102165.41;5072149;28;20483;-77
2021/11/24 04:37:47;;;;;;;19.05;10.07;;;;;;;11.00;52.90;102164.47;5059795;28;20087;-77
2021/11/24 04:40:17;;;;;;;22.88;9.88;;;;;;;11.03;52.84;102158.91;5066359;28;20080;-77
2021/11/24 04:42:44;;;;;;;17.58;9.20;;;;;;;11.02;52.56;102159.84;5069247;28;20549;-77
2021/11/24 04:45:12;;;;;;;20.17;10.00;;;;;;;11.04;52.81;102162.47;5067558;28;20049;-77
2021/11/24 04:47:39;;;;;;;23.65;10.88;;;;;;;11.03;52.90;102152.59;5061950;28;20443;-77
2021/11/24 04:50:06;;;;;;;24.50;11.20;;;;;;;11.04;52.89;102157.03;5037977;28;20415;-77
2021/11/24 04:52:32;;;;;;;25.90;11.45;;;;;;;11.04;52.70;102152.47;5033518;28;20069;-77
2021/11/24 04:54:59;;;;;;;22.38;10.02;;;;;;;11.05;52.65;102150.63;5051959;28;20064;-77
2021/11/24 04:57:26;;;;;;;19.40;9.60;;;;;;;11.04;52.72;102146.16;5057845;28;20044;-77
2021/11/24 04:59:52;;;;;;;22.70;10.73;;;;;;;11.04;52.70;102148.88;5061868;28;20492;-77
2021/11/24 05:02:19;;;;;;;26.10;11.35;;;;;;;11.04;52.77;102151.59;5041843;28;20095;-77
2021/11/24 05:04:46;;;;;;;23.60;11.23;;;;;;;11.05;52.80;102150.63;5063004;28;20045;-77
2021/11/24 05:07:12;;;;;;;24.02;10.40;;;;;;;11.05;52.63;102154.25;5064662;28;20060;-77
2021/11/24 05:09:59;;;;;;;21.83;10.23;;;;;;;11.05;52.70;102148.81;5052747;28;20056;-77
2021/11/24 05:12:26;;;;;;;25.33;11.63;;;;;;;11.08;52.71;102155.94;5060641;28;20079;-77
2021/11/24 05:14:53;;;;;;;25.23;11.13;;;;;;;11.07;52.43;102149.63;5070657;28;20083;-77
2021/11/24 05:17:22;;;;;;;21.08;10.55;;;;;;;11.09;52.61;102159.53;5035634;28;20522;-77
2021/11/24 05:19:50;;;;;;;21.85;10.95;;;;;;;11.09;52.88;102154.09;5052572;28;20762;-77
2021/11/24 05:22:18;;;;;;;24.63;12.18;;;;;;;11.09;52.34;102155.00;5037937;28;20484;-77
2021/11/24 05:24:49;;;;;;;23.17;10.02;;;;;;;11.09;52.84;102148.69;5056745;28;20064;-77
2021/11/24 05:27:15;;;;;;;22.52;10.57;;;;;;;11.10;52.60;102151.31;5040494;28;20079;-77
2021/11/24 05:29:42;;;;;;;21.23;10.73;;;;;;;11.10;52.55;102145.88;5076363;28;20133;-77
2021/11/24 05:32:09;;;;;;;24.70;12.38;;;;;;;11.10;52.66;102142.28;5066213;28;20060;-76
2021/11/24 05:34:36;;;;;;;28.73;13.23;;;;;;;11.10;52.47;102143.16;5071295;28;20109;-76
2021/11/24 05:37:03;;;;;;;27.52;12.88;;;;;;;11.10;52.81;102148.59;5069594;28;20056;-76
2021/11/24 05:39:32;;;;;;;26.67;13.43;;;;;;;11.10;52.75;102145.00;5044879;28;20045;-76
2021/11/24 05:41:58;;;;;;;24.38;12.75;;;;;;;11.09;52.82;102140.53;5058457;28;20056;-76
2021/11/24 05:44:26;;;;;;;25.75;12.60;;;;;;;11.07;52.75;102138.75;5069633;28;20114;-75
2021/11/24 05:46:57;;;;;;;26.88;14.05;;;;;;;11.09;52.71;102143.25;5047697;28;20087;-76
2021/11/24 05:49:25;;;;;;;25.77;13.48;;;;;;;11.07;52.84;102140.59;5061671;28;20057;-76
2021/11/24 05:51:53;;;;;;;27.95;14.05;;;;;;;11.06;53.15;102137.00;5043908;28;20091;-78
2021/11/24 05:54:20;;;;;;;27.70;13.35;;;;;;;11.04;52.92;102136.16;5068228;28;20106;-78
2021/11/24 05:56:47;;;;;;;29.33;14.18;;;;;;;11.05;52.74;102137.06;5064358;28;20045;-78
2021/11/24 05:59:17;;;;;;;29.48;15.07;;;;;;;11.05;52.94;102137.06;5068448;28;20048;-77
2021/11/24 06:01:44;;;;;;;28.52;13.73;;;;;;;11.04;52.97;102138.00;5069263;28;20083;-68
2021/11/24 06:04:11;;;;;;;27.48;13.48;;;;;;;11.05;52.79;102139.78;5072911;28;20491;-67
2021/11/24 06:06:38;;;;;;;26.17;12.57;;;;;;;11.04;52.85;102128.00;5067742;28;20122;-70
2021/11/24 06:09:06;;;;;;;29.92;14.80;;;;;;;11.07;53.05;102129.72;5054074;28;20061;-70
2021/11/24 06:11:33;;;;;;;28.17;12.32;;;;;;;11.10;52.98;102131.41;5065733;28;20095;-70
2021/11/24 06:14:00;;;;;;;27.67;13.05;;;;;;;11.11;53.45;102127.75;5071816;28;20102;-68
2021/11/24 06:16:27;;;;;;;23.90;13.05;;;;;;;11.12;53.15;102124.94;5073277;28;20102;-76
2021/11/24 06:18:54;;;;;;;24.75;13.18;;;;;;;11.15;53.24;102123.91;5060290;28;20056;-76
2021/11/24 06:21:22;;;;;;;24.10;12.48;;;;;;;11.17;53.28;102119.28;5073556;28;20044;-78
2021/11/24 06:23:50;;;;;;;23.85;11.90;;;;;;;11.20;53.02;102119.16;5039781;28;20114;-77
2021/11/24 06:26:19;;;;;;;21.92;11.40;;;;;;;11.19;52.95;102112.81;5047747;28;20102;-77
2021/11/24 06:28:47;;;;;;;25.05;12.63;;;;;;;11.21;53.09;102110.88;5058573;28;20068;-76
2021/11/24 06:31:13;;;;;;;21.23;10.75;;;;;;;11.23;53.00;102111.69;5065491;28;20095;-77
2021/11/24 06:33:40;;;;;;;23.05;10.88;;;;;;;11.24;53.00;102098.97;5068940;28;20067;-78
2021/11/24 06:36:07;;;;;;;20.30;9.90;;;;;;;11.24;52.70;102107.13;5067211;28;20053;-77
2021/11/24 06:38:34;;;;;;;18.38;9.65;;;;;;;11.25;53.12;102100.75;5067042;28;20106;-78
2021/11/24 06:41:01;;;;;;;16.92;9.48;;;;;;;11.25;53.07;102098.91;5054700;28;20163;-78
2021/11/24 06:43:28;;;;;;;17.60;9.60;;;;;;;11.25;52.79;102106.19;5070891;28;20458;-78
2021/11/24 06:45:54;;;;;;;15.88;8.90;;;;;;;11.26;52.86;102103.41;5066209;28;20048;-78
2021/11/24 06:48:21;;;;;;;17.60;9.50;;;;;;;11.26;53.18;102102.50;5072906;28;20131;-78
2021/11/24 06:50:47;;;;;;;17.05;9.00;;;;;;;11.26;52.94;102095.25;5069708;28;20688;-80
2021/11/24 06:53:14;;;;;;;19.00;10.10;;;;;;;11.28;53.26;102106.06;5047804;28;20123;-69
2021/11/24 06:55:41;;;;;;;21.10;10.82;;;;;;;11.28;53.12;102087.03;5060351;28;20179;-78
2021/11/24 06:58:07;;;;;;;23.33;12.05;;;;;;;11.29;53.09;102089.63;5041316;28;20498;-79
2021/11/24 07:00:35;;;;;;;26.17;12.73;;;;;;;11.30;53.08;102096.84;5074300;28;20087;-79
2021/11/24 07:03:01;;;;;;;19.73;10.38;;;;;;;11.30;53.02;102085.06;5050831;28;20087;-79
2021/11/24 07:05:28;;;;;;;20.40;10.68;;;;;;;11.30;52.91;102088.69;5066877;28;20052;-80
2021/11/24 07:07:55;;;;;;;17.27;9.90;;;;;;;11.32;52.85;102086.78;5034752;28;20110;-80
2021/11/24 07:10:22;;;;;;;19.52;10.02;;;;;;;11.33;52.81;102088.53;5062494;28;20056;-80
2021/11/24 07:12:49;;;;;;;17.75;9.75;;;;;;;11.35;53.22;102107.50;5067440;28;20473;-80
2021/11/24 07:15:16;;;;;;;17.02;10.18;;;;;;;11.34;52.82;102098.47;5052194;28;20061;-80
2021/11/24 07:17:42;;;;;;;20.60;10.15;;;;;;;11.34;52.56;102105.72;5072052;28;20077;-81
2021/11/24 07:20:09;;;;;;;16.90;9.65;;;;;;;11.35;52.53;102099.34;5070661;28;20153;-80
2021/11/24 07:22:36;;;;;;;19.15;9.63;;;;;;;11.34;52.69;102094.84;5049219;28;20515;-80
2021/11/24 07:25:03;;;;;;;20.55;9.85;;;;;;;11.37;52.76;102097.41;5047134;28;20048;-79
2021/11/24 07:27:30;;;;;;;18.33;9.88;;;;;;;11.35;52.82;102102.94;5070404;28;20840;-79
2021/11/24 07:29:57;;;;;;;18.67;9.68;;;;;;;11.36;52.65;102098.38;5062130;28;20118;-79
2021/11/24 07:32:24;;;;;;;18.25;9.50;;;;;;;11.35;52.76;102093.91;5042717;28;20445;-78
2021/11/24 07:34:50;;;;;;;19.10;9.25;;;;;;;11.35;52.78;102092.06;5055780;28;20045;-77
2021/11/24 07:37:22;;;;;;;18.13;9.17;;;;;;;11.33;52.62;102098.53;5057711;28;20084;-79
2021/11/24 07:39:49;;;;;;;17.02;9.57;;;;;;;11.33;52.96;102093.97;5064660;28;20091;-79
2021/11/24 07:42:16;;;;;;;18.20;9.43;;;;;;;11.33;52.85;102087.66;5072781;28;20052;-79
2021/11/24 07:44:42;;;;;;;18.23;9.35;;;;;;;11.32;53.01;102097.66;5067595;28;20144;-78
2021/11/24 07:47:09;;;;;;;17.80;8.80;;;;;;;11.33;52.85;102093.97;5065299;28;20049;-78
2021/11/24 07:49:35;;;;;;;18.42;9.80;;;;;;;11.32;52.82;102077.72;5056274;28;20087;-78
2021/11/24 07:52:02;;;;;;;17.70;9.52;;;;;;;11.32;53.15;102075.91;5058146;28;20049;-78
2021/11/24 07:54:29;;;;;;;15.52;7.97;;;;;;;11.33;52.95;102071.34;5063407;28;20048;-77
2021/11/24 07:56:56;;;;;;;17.23;9.25;;;;;;;11.32;53.02;102073.19;5056980;28;20113;-78
2021/11/24 07:59:23;;;;;;;19.05;8.48;;;;;;;11.32;52.70;102073.19;5057793;28;20053;-76
2021/11/24 08:01:50;;;;;;;15.65;8.40;;;;;;;11.34;52.88;102074.00;5071143;28;20048;-77
2021/11/24 08:04:17;;;;;;;15.95;8.45;;;;;;;11.35;52.90;102066.72;5065000;28;20135;-77
2021/11/24 08:06:44;;;;;;;16.20;8.68;;;;;;;11.35;52.76;102067.59;5049323;28;20123;-77
2021/11/24 08:09:11;;;;;;;20.60;10.65;;;;;;;11.38;53.28;102069.25;5070678;28;20075;-79
2021/11/24 08:11:37;;;;;;;16.73;8.68;;;;;;;11.39;52.86;102065.59;5047058;28;20048;-78
2021/11/24 08:14:07;;;;;;;16.65;8.48;;;;;;;11.42;52.87;102065.44;5068629;28;20048;-78
2021/11/24 08:16:33;;;;;;;18.00;8.40;;;;;;;11.42;52.83;102066.31;5060688;28;20201;-78
2021/11/24 08:19:00;;;;;;;18.48;9.73;;;;;;;11.43;53.06;102056.31;5059559;28;20082;-78
2021/11/24 08:21:27;;;;;;;18.73;8.70;;;;;;;11.44;52.76;102058.09;5068178;28;20052;-78
2021/11/24 08:23:53;;;;;;;16.15;8.25;;;;;;;11.45;52.84;102049.81;5059876;28;20049;-79
2021/11/24 08:26:24;;;;;;;16.55;8.35;;;;;;;11.47;52.85;102052.47;5059052;28;20041;-78
2021/11/24 08:28:50;;;;;;;17.30;8.75;;;;;;;11.47;52.76;102049.75;5064617;28;20041;-78
2021/11/24 08:31:17;;;;;;;15.90;7.88;;;;;;;11.49;52.60;102052.41;5058677;28;20124;-78
2021/11/24 08:33:44;;;;;;;16.08;8.40;;;;;;;11.49;53.05;102050.56;5056710;28;20055;-77
2021/11/24 08:36:15;;;;;;;19.67;8.48;;;;;;;11.50;52.84;102046.00;5058993;28;20091;-78
2021/11/24 08:38:43;;;;;;;17.70;8.80;;;;;;;11.52;52.89;102044.09;5050482;28;20053;-78
2021/11/24 08:41:12;;;;;;;16.63;8.60;;;;;;;11.54;52.90;102043.03;5057620;28;20057;-78
2021/11/24 08:43:39;;;;;;;15.82;8.38;;;;;;;11.54;52.70;102044.88;5057563;28;20546;-78
2021/11/24 08:46:07;;;;;;;14.77;8.73;;;;;;;11.56;52.78;102043.84;5059167;28;20051;-78
2021/11/24 08:48:34;;;;;;;18.90;8.90;;;;;;;11.57;52.80;102034.72;5045526;28;20384;-78
2021/11/24 08:51:03;;;;;;;20.30;10.38;;;;;;;11.59;52.89;102040.97;5051025;28;20503;-78
2021/11/24 08:53:29;;;;;;;20.80;9.85;;;;;;;11.59;52.82;102032.81;5064002;28;20485;-78
2021/11/24 08:55:56;;;;;;;19.13;9.90;;;;;;;11.60;52.66;102022.81;5068384;28;20102;-78
2021/11/24 08:58:23;;;;;;;19.35;10.65;;;;;;;11.59;52.81;102019.22;5071273;28;20048;-78
2021/11/24 09:00:50;;;;;;;21.45;10.00;;;;;;;11.61;52.81;102028.16;5054192;28;20327;-78
2021/11/24 09:03:17;;;;;;;20.38;10.43;;;;;;;11.61;53.15;102021.84;5045112;28;20094;-78
2021/11/24 09:05:43;;;;;;;19.92;10.60;;;;;;;11.60;53.00;102018.25;5067491;28;20048;-78
2021/11/24 09:08:10;;;;;;;19.38;11.27;;;;;;;11.61;52.95;102024.59;5068383;28;20048;-78
2021/11/24 09:10:38;;;;;;;20.15;10.75;;;;;;;11.62;52.50;102016.31;5070344;28;20376;-78
2021/11/24 09:13:05;;;;;;;22.90;11.02;;;;;;;11.62;52.77;102018.16;5066057;28;20057;-78
2021/11/24 09:15:31;;;;;;;23.80;12.40;;;;;;;11.61;53.01;102017.28;5061131;28;20526;-78
2021/11/24 09:18:12;;;;;;;21.23;10.57;;;;;;;11.62;52.75;102012.72;5039830;28;20454;-78
2021/11/24 09:20:39;;;;;;;22.98;11.63;;;;;;;11.61;52.81;102008.25;5056502;28;20049;-77
2021/11/24 09:23:06;;;;;;;23.08;12.07;;;;;;;11.61;52.85;102006.38;5049357;28;20082;-78
2021/11/24 09:25:49;;;;;;;20.00;9.07;;;;;;;11.60;52.91;102007.38;5067468;28;20139;-78
2021/11/24 09:28:19;;;;;;;21.90;11.20;;;;;;;11.60;52.89;101999.22;5067253;28;20045;-78
2021/11/24 09:30:47;;;;;;;24.80;11.35;;;;;;;11.62;52.81;102001.84;5060784;28;20101;-78
2021/11/24 09:33:14;;;;;;;26.60;12.10;;;;;;;11.62;52.93;101997.28;5071098;28;20052;-77
2021/11/24 09:35:40;;;;;;;22.63;11.32;;;;;;;11.63;52.83;101998.16;5073266;28;20052;-77
2021/11/24 09:38:07;;;;;;;23.95;11.57;;;;;;;11.65;52.88;101990.78;5060341;28;20064;-78
2021/11/24 09:40:35;;;;;;;25.08;11.25;;;;;;;11.65;52.66;101988.06;5060358;28;20045;-77
2021/11/24 09:43:05;;;;;;;23.60;11.88;;;;;;;11.67;52.89;101989.75;5057502;28;20090;-78
2021/11/24 09:45:34;;;;;;;22.92;11.65;;;;;;;11.66;52.83;101982.56;5072746;28;20117;-77
2021/11/24 09:48:02;;;;;;;27.77;11.85;;;;;;;11.67;52.88;101989.75;5067930;28;20086;-77
2021/11/24 09:50:32;;;;;;;24.42;11.40;;;;;;;11.68;53.10;101985.22;5059835;28;20106;-78
2021/11/24 09:53:00;;;;;;;22.52;10.77;;;;;;;11.68;53.13;101977.94;5035332;28;20041;-77
2021/11/24 09:55:29;;;;;;;24.98;11.85;;;;;;;11.69;52.94;101974.25;5067107;28;20048;-78
2021/11/24 09:57:57;;;;;;;22.83;10.63;;;;;;;11.70;52.87;101980.53;5055065;28;20052;-78
2021/11/24 10:00:28;;;;;;;26.40;12.38;;;;;;;11.71;53.07;101975.03;5057670;28;20052;-77
2021/11/24 10:02:56;;;;;;;22.45;11.07;;;;;;;11.72;53.00;101971.34;5050758;28;20549;-78
2021/11/24 10:05:27;;;;;;;24.02;11.38;;;;;;;11.75;53.32;101965.78;5064197;28;20138;-77
2021/11/24 10:07:55;;;;;;;23.15;11.52;;;;;;;11.75;53.14;101959.47;5068796;28;20037;-78
2021/11/24 10:10:22;;;;;;;20.65;9.65;;;;;;;11.76;52.90;101962.09;5054773;28;20556;-77
2021/11/24 10:12:49;;;;;;;20.13;9.93;;;;;;;11.79;52.94;101955.59;5053188;28;20062;-77
2021/11/24 10:15:36;;;;;;;21.35;10.38;;;;;;;11.81;53.16;101949.13;5067553;28;20056;-77
2021/11/24 10:18:10;;;;;;;19.50;9.73;;;;;;;11.82;52.92;101947.28;5054854;28;20045;-77
2021/11/24 10:20:51;;;;;;;21.60;9.23;;;;;;;11.86;53.11;101950.72;5061778;28;20084;-77
2021/11/24 10:23:43;;;;;;;18.02;9.57;;;;;;;11.86;52.90;101937.97;5067821;28;20098;-77
2021/11/24 10:26:23;;;;;;;21.48;9.82;;;;;;;11.87;53.08;101937.00;5058971;28;20102;-77
2021/11/24 10:29:13;;;;;;;19.48;8.65;;;;;;;11.88;53.22;101929.72;5069683;28;20056;-77
2021/11/24 10:31:45;;;;;;;19.17;8.73;;;;;;;11.92;52.98;101923.16;5072478;28;20052;-77
2021/11/24 10:34:24;;;;;;;19.73;9.43;;;;;;;11.94;53.05;101929.41;5069088;28;20044;-77
2021/11/24 10:36:55;;;;;;;17.00;9.25;;;;;;;11.94;52.95;101919.38;5053426;28;20052;-78
2021/11/24 10:39:26;;;;;;;19.98;9.38;;;;;;;11.97;52.96;101919.22;5071942;28;20052;-77
2021/11/24 10:41:52;;;;;;;20.77;10.27;;;;;;;11.98;52.84;101914.66;5063537;28;20103;-78
2021/11/24 10:44:30;;;;;;;23.65;10.50;;;;;;;11.99;52.88;101905.53;5064626;28;20463;-77
2021/11/24 10:46:59;;;;;;;20.65;9.20;;;;;;;11.98;52.71;101904.66;5053329;28;20080;-77
2021/11/24 10:49:43;;;;;;;22.27;10.73;;;;;;;12.02;52.93;101898.09;5071328;28;20509;-77
2021/11/24 10:52:23;;;;;;;20.88;9.70;;;;;;;12.03;52.70;101905.25;5051268;28;20554;-77
2021/11/24 10:55:04;;;;;;;17.83;9.43;;;;;;;12.01;52.62;101885.44;5068667;28;20044;-77
2021/11/24 10:57:35;;;;;;;17.33;9.05;;;;;;;12.02;52.89;101879.03;5066196;28;20056;-77
2021/11/24 11:00:20;;;;;;;20.38;10.00;;;;;;;12.06;52.63;101877.00;5062062;28;20499;-77
2021/11/24 11:02:48;;;;;;;17.80;9.20;;;;;;;12.03;52.99;101869.88;5055887;28;20045;-77
2021/11/24 11:05:28;;;;;;;15.15;7.95;;;;;;;12.07;52.75;101868.75;5068606;28;20063;-77
2021/11/24 11:08:02;;;;;;;17.90;8.80;;;;;;;12.07;52.75;101866.03;5039209;28;20061;-77
2021/11/24 11:10:36;;;;;;;17.00;8.80;;;;;;;12.11;52.72;101851.25;5034206;28;20080;-78
2021/11/24 11:13:11;;;;;;;18.63;8.73;;;;;;;12.12;52.91;101843.97;5063725;28;20071;-77
2021/11/24 11:15:40;;;;;;;19.55;9.98;;;;;;;12.13;52.81;101851.16;5056342;28;20154;-77